createdAt,value
2022-08-30T00:00:04.410Z,100616.00
2022-08-30T00:03:09.802Z,100616.00
2022-08-30T00:06:19.412Z,100621.06
2022-08-30T00:09:22.117Z,100612.66
2022-08-30T00:12:25.382Z,100620.19
2022-08-30T00:15:29.378Z,100620.53
2022-08-30T00:18:33.792Z,100618.22
2022-08-30T00:21:36.367Z,100620.81
2022-08-30T00:24:39.433Z,100623.34
2022-08-30T00:27:42.704Z,100620.72
2022-08-30T00:30:47.066Z,100620.72
2022-08-30T00:33:49.579Z,100621.16
2022-08-30T00:36:52.321Z,100611.44
2022-08-30T00:39:54.861Z,100614.72
2022-08-30T00:42:59.928Z,100623.34
2022-08-30T00:46:08.421Z,100625.06
2022-08-30T00:49:12.946Z,100616.69
2022-08-30T00:52:18.520Z,100611.19
2022-08-30T00:55:22.173Z,100614.78
2022-08-30T00:58:31.153Z,100608.22
2022-08-30T01:01:36.018Z,100609.06
2022-08-30T01:04:43.015Z,100615.53
2022-08-30T01:07:45.908Z,100621.06
2022-08-30T01:10:50.133Z,100626.91
2022-08-30T01:13:54.317Z,100625.72
2022-08-30T01:16:57.900Z,100614.56
2022-08-30T01:20:08.170Z,100620.31
2022-08-30T01:23:14.933Z,100614.44
2022-08-30T01:26:19.230Z,100615.78
2022-08-30T01:29:26.284Z,100609.44
2022-08-30T01:32:29.948Z,100614.84
2022-08-30T01:35:55.152Z,100615.78
2022-08-30T01:38:58.809Z,100608.12
2022-08-30T01:42:02.870Z,100606.09
2022-08-30T01:45:06.737Z,100602.75
2022-08-30T01:48:12.808Z,100608.38
2022-08-30T01:51:16.566Z,100605.28
2022-08-30T01:54:19.138Z,100605.03
2022-08-30T01:57:23.908Z,100604.53
2022-08-30T02:00:26.597Z,100603.84
2022-08-30T02:03:33.073Z,100607.91
2022-08-30T02:06:38.402Z,100603.13
2022-08-30T02:09:41.018Z,100608.59
2022-08-30T02:12:43.812Z,100613.16
2022-08-30T02:15:46.394Z,100602.81
2022-08-30T02:18:50.764Z,100611.97
2022-08-30T02:21:53.280Z,100598.31
2022-08-30T02:24:56.283Z,100594.44
2022-08-30T02:27:58.782Z,100599.22
2022-08-30T02:31:02.044Z,100599.06
2022-08-30T02:34:04.854Z,100600.16
2022-08-30T02:37:09.072Z,100592.63
2022-08-30T02:40:11.996Z,100609.22
2022-08-30T02:43:15.475Z,100600.84
2022-08-30T02:46:18.780Z,100596.87
2022-08-30T02:49:36.984Z,100599.28
2022-08-30T02:52:39.539Z,100602.84
2022-08-30T02:55:43.437Z,100598.66
2022-08-30T02:58:46.030Z,100598.88
2022-08-30T03:01:49.059Z,100589.00
2022-08-30T03:04:52.734Z,100591.03
2022-08-30T03:07:55.767Z,100597.50
2022-08-30T03:10:59.234Z,100600.63
2022-08-30T03:14:02.006Z,100602.63
2022-08-30T03:17:06.880Z,100601.56
2022-08-30T03:20:15.576Z,100603.44
2022-08-30T03:23:21.842Z,100611.69
2022-08-30T03:26:24.987Z,100607.03
2022-08-30T03:29:29.730Z,100611.59
2022-08-30T03:32:32.565Z,100608.56
2022-08-30T03:35:35.063Z,100614.28
2022-08-30T03:38:38.653Z,100621.28
2022-08-30T03:41:41.147Z,100622.78
2022-08-30T03:44:44.152Z,100624.81
2022-08-30T03:47:46.710Z,100629.22
2022-08-30T03:50:49.485Z,100638.16
2022-08-30T03:53:54.729Z,100628.84
2022-08-30T03:56:57.670Z,100629.84
2022-08-30T04:00:00.230Z,100633.16
2022-08-30T04:03:03.071Z,100640.28
2022-08-30T04:06:06.343Z,100636.94
2022-08-30T04:09:08.924Z,100639.56
2022-08-30T04:12:11.738Z,100628.06
2022-08-30T04:15:14.958Z,100640.94
2022-08-30T04:18:18.301Z,100645.56
2022-08-30T04:21:20.879Z,100652.38
2022-08-30T04:24:24.620Z,100665.19
2022-08-30T04:27:27.086Z,100663.31
2022-08-30T04:30:30.399Z,100677.16
2022-08-30T04:33:35.417Z,100686.84
2022-08-30T04:36:41.249Z,100685.84
2022-08-30T04:39:43.851Z,100680.25
2022-08-30T04:42:47.667Z,100692.44
2022-08-30T04:45:52.208Z,100698.47
2022-08-30T04:48:55.075Z,100698.97
2022-08-30T04:51:57.548Z,100704.25
2022-08-30T04:55:00.422Z,100704.84
2022-08-30T04:58:02.882Z,100702.94
2022-08-30T05:01:11.423Z,100707.25
2022-08-30T05:04:15.765Z,100707.63
2022-08-30T05:07:18.544Z,100715.19
2022-08-30T05:10:21.335Z,100714.00
2022-08-30T05:13:35.049Z,100711.84
2022-08-30T05:16:38.719Z,100720.38
2022-08-30T05:19:41.738Z,100724.91
2022-08-30T05:22:53.576Z,100723.22
2022-08-30T05:25:58.339Z,100715.97
2022-08-30T05:29:01.594Z,100705.16
2022-08-30T05:32:04.518Z,100715.22
2022-08-30T05:35:08.648Z,100716.28
2022-08-30T05:38:11.375Z,100718.37
2022-08-30T05:41:14.043Z,100715.00
2022-08-30T05:44:17.397Z,100704.31
2022-08-30T05:47:20.739Z,100711.00
2022-08-30T05:50:23.856Z,100712.06
2022-08-30T05:53:26.448Z,100723.78
2022-08-30T05:56:35.758Z,100721.94
2022-08-30T05:59:38.610Z,100727.28
2022-08-30T06:02:42.474Z,100727.88
2022-08-30T06:08:48.935Z,100732.75
2022-08-30T06:11:51.855Z,100730.09
2022-08-30T06:14:54.493Z,100728.19
2022-08-30T06:17:57.393Z,100733.22
2022-08-30T06:21:00.108Z,100735.53
2022-08-30T06:24:05.269Z,100734.78
2022-08-30T06:27:07.746Z,100734.19
2022-08-30T06:30:11.067Z,100736.19
2022-08-30T06:33:13.577Z,100736.00
2022-08-30T06:36:19.361Z,100736.38
2022-08-30T06:39:22.016Z,100726.84
2022-08-30T06:42:30.672Z,100727.84
2022-08-30T06:45:35.255Z,100730.06
2022-08-30T06:48:38.180Z,100726.56
2022-08-30T06:51:41.238Z,100726.47
2022-08-30T06:54:44.888Z,100730.25
2022-08-30T06:57:47.429Z,100728.03
2022-08-30T07:00:50.231Z,100733.84
2022-08-30T07:03:53.775Z,100739.97
2022-08-30T07:06:56.623Z,100736.78
2022-08-30T07:09:59.405Z,100743.03
2022-08-30T07:13:02.224Z,100749.47
2022-08-30T07:16:14.621Z,100748.59
2022-08-30T07:19:20.989Z,100753.88
2022-08-30T07:22:23.860Z,100753.81
2022-08-30T07:25:27.321Z,100743.06
2022-08-30T07:28:29.827Z,100751.72
2022-08-30T07:31:34.486Z,100754.44
2022-08-30T07:34:37.063Z,100759.13
2022-08-30T07:37:39.871Z,100752.34
2022-08-30T07:40:42.602Z,100751.44
2022-08-30T07:43:45.491Z,100755.37
2022-08-30T07:46:48.042Z,100758.50
2022-08-30T07:49:50.975Z,100754.78
2022-08-30T07:52:53.765Z,100757.56
2022-08-30T07:55:56.873Z,100758.34
2022-08-30T07:58:59.810Z,100755.16
2022-08-30T08:02:02.644Z,100753.75
2022-08-30T08:05:05.886Z,100761.53
2022-08-30T08:08:09.033Z,100751.06
2022-08-30T08:11:19.135Z,100753.28
2022-08-30T08:14:23.683Z,100749.44
2022-08-30T08:17:26.599Z,100749.41
2022-08-30T08:20:29.303Z,100752.09
2022-08-30T08:23:32.184Z,100755.06
2022-08-30T08:26:39.095Z,100749.53
2022-08-30T08:29:44.071Z,100748.06
2022-08-30T08:32:47.061Z,100749.22
2022-08-30T08:35:49.985Z,100751.81
2022-08-30T08:38:53.531Z,100754.31
2022-08-30T08:42:11.330Z,100750.38
2022-08-30T08:45:17.398Z,100758.06
2022-08-30T08:48:32.091Z,100753.00
2022-08-30T08:52:06.938Z,100747.97
2022-08-30T08:55:13.156Z,100743.25
2022-08-30T08:58:52.131Z,100736.06
2022-08-30T09:02:01.815Z,100743.47
2022-08-30T09:05:04.660Z,100748.56
2022-08-30T09:08:12.781Z,100741.13
2022-08-30T09:11:32.481Z,100741.97
2022-08-30T09:14:44.215Z,100735.44
2022-08-30T09:18:19.646Z,100733.19
2022-08-30T09:21:26.655Z,100736.31
2022-08-30T09:24:53.017Z,100730.38
2022-08-30T09:28:10.808Z,100727.53
2022-08-30T09:31:26.737Z,100719.88
2022-08-30T09:34:33.179Z,100717.72
2022-08-30T09:37:52.489Z,100722.03
2022-08-30T09:40:58.798Z,100713.34
2022-08-30T09:44:10.699Z,100714.19
2022-08-30T09:47:31.867Z,100709.69
2022-08-30T09:50:36.685Z,100711.97
2022-08-30T09:54:18.872Z,100704.81
2022-08-30T09:57:43.094Z,100699.25
2022-08-30T10:01:01.257Z,100701.56
2022-08-30T10:04:23.495Z,100696.16
2022-08-30T10:07:30.662Z,100690.56
2022-08-30T10:11:27.455Z,100684.19
2022-08-30T10:14:42.371Z,100685.81
2022-08-30T10:18:21.925Z,100690.87
2022-08-30T10:21:52.449Z,100684.72
2022-08-30T10:25:09.952Z,100677.69
2022-08-30T10:28:35.421Z,100678.97
2022-08-30T10:31:54.662Z,100673.34
2022-08-30T10:35:09.271Z,100679.09
2022-08-30T10:38:35.438Z,100667.06
2022-08-30T10:41:43.861Z,100666.59
2022-08-30T10:44:52.897Z,100659.12
2022-08-30T10:48:02.393Z,100651.53
2022-08-30T10:51:11.592Z,100656.25
2022-08-30T10:54:25.135Z,100645.88
2022-08-30T10:57:27.956Z,100643.00
2022-08-30T11:00:41.887Z,100639.91
2022-08-30T11:04:04.938Z,100636.72
2022-08-30T11:07:35.792Z,100635.44
2022-08-30T11:10:49.564Z,100630.06
2022-08-30T11:13:57.103Z,100633.63
2022-08-30T11:17:01.962Z,100640.06
2022-08-30T11:20:06.240Z,100634.56
2022-08-30T11:23:24.597Z,100630.41
2022-08-30T11:26:45.327Z,100625.00
2022-08-30T11:29:48.580Z,100624.22
2022-08-30T11:33:02.076Z,100613.87
2022-08-30T11:36:05.251Z,100610.37
2022-08-30T11:39:20.772Z,100607.41
2022-08-30T11:42:48.283Z,100613.00
2022-08-30T11:45:54.706Z,100593.16
2022-08-30T11:49:03.371Z,100591.75
2022-08-30T11:52:26.608Z,100585.31
2022-08-30T11:55:37.113Z,100584.12
2022-08-30T11:58:54.749Z,100582.97
2022-08-30T12:01:58.418Z,100576.72
2022-08-30T12:05:01.756Z,100580.06
2022-08-30T12:08:09.051Z,100572.63
2022-08-30T12:11:11.986Z,100571.56
2022-08-30T12:14:47.730Z,100568.38
2022-08-30T12:18:17.086Z,100568.59
2022-08-30T12:21:19.933Z,100562.09
2022-08-30T12:24:41.223Z,100557.88
2022-08-30T12:27:43.879Z,100553.13
2022-08-30T12:30:46.994Z,100553.47
2022-08-30T12:33:54.353Z,100548.16
2022-08-30T12:37:04.494Z,100542.41
2022-08-30T12:40:07.517Z,100532.44
2022-08-30T12:43:24.170Z,100534.12
2022-08-30T12:46:30.190Z,100521.47
2022-08-30T12:49:36.569Z,100516.66
2022-08-30T12:52:44.920Z,100512.31
2022-08-30T12:55:53.812Z,100514.50
2022-08-30T12:59:00.488Z,100514.91
2022-08-30T13:02:42.925Z,100517.81
2022-08-30T13:05:48.493Z,100513.44
2022-08-30T13:08:53.826Z,100504.59
2022-08-30T13:11:56.747Z,100508.44
2022-08-30T13:15:10.948Z,100505.50
2022-08-30T13:18:18.951Z,100508.16
2022-08-30T13:21:32.265Z,100502.59
2022-08-30T13:24:34.914Z,100495.03
2022-08-30T13:27:40.404Z,100493.25
2022-08-30T13:30:42.955Z,100496.41
2022-08-30T13:33:46.246Z,100485.13
2022-08-30T13:36:57.445Z,100483.81
2022-08-30T13:40:04.548Z,100484.47
2022-08-30T13:43:07.562Z,100477.97
2022-08-30T13:46:12.457Z,100483.19
2022-08-30T13:49:46.874Z,100479.12
2022-08-30T13:52:49.731Z,100480.25
2022-08-30T13:55:52.409Z,100471.78
2022-08-30T13:58:55.534Z,100479.69
2022-08-30T14:02:08.648Z,100470.16
2022-08-30T14:05:25.476Z,100460.66
2022-08-30T14:08:47.612Z,100465.44
2022-08-30T14:11:52.103Z,100460.13
2022-08-30T14:14:58.960Z,100457.28
2022-08-30T14:18:02.292Z,100455.13
2022-08-30T14:21:04.907Z,100452.06
2022-08-30T14:24:09.260Z,100442.81
2022-08-30T14:27:12.035Z,100447.53
2022-08-30T14:30:20.555Z,100444.53
2022-08-30T14:33:24.175Z,100441.69
2022-08-30T14:36:27.063Z,100438.28
2022-08-30T14:39:30.001Z,100439.53
2022-08-30T14:42:32.944Z,100439.22
2022-08-30T14:45:38.410Z,100434.09
2022-08-30T14:48:43.095Z,100438.84
2022-08-30T14:51:46.377Z,100434.41
2022-08-30T14:54:49.237Z,100431.53
2022-08-30T14:57:51.844Z,100437.34
2022-08-30T15:00:55.199Z,100436.78
2022-08-30T15:03:58.446Z,100427.75
2022-08-30T15:07:01.401Z,100424.63
2022-08-30T15:10:07.771Z,100421.59
2022-08-30T15:13:11.301Z,100419.81
2022-08-30T15:16:18.715Z,100428.00
2022-08-30T15:19:21.540Z,100426.03
2022-08-30T15:22:24.235Z,100422.81
2022-08-30T15:25:27.530Z,100421.00
2022-08-30T15:28:30.287Z,100417.28
2022-08-30T15:31:34.882Z,100409.31
2022-08-30T15:34:37.360Z,100413.53
2022-08-30T15:37:40.339Z,100410.59
2022-08-30T15:40:44.645Z,100407.38
2022-08-30T15:43:47.976Z,100406.91
2022-08-30T15:46:50.959Z,100417.13
2022-08-30T15:49:56.237Z,100413.19
2022-08-30T15:52:58.822Z,100407.75
2022-08-30T15:56:01.727Z,100405.34
2022-08-30T15:59:04.311Z,100409.56
2022-08-30T16:02:09.873Z,100419.03
2022-08-30T16:05:12.762Z,100412.81
2022-08-30T16:08:15.348Z,100418.16
2022-08-30T16:11:24.768Z,100404.88
2022-08-30T16:14:27.734Z,100404.47
2022-08-30T16:17:30.568Z,100404.13
2022-08-30T16:20:33.245Z,100401.16
2022-08-30T16:23:37.604Z,100396.69
2022-08-30T16:26:41.388Z,100395.22
2022-08-30T16:29:44.657Z,100384.41
2022-08-30T16:32:49.288Z,100394.81
2022-08-30T16:35:53.900Z,100398.44
2022-08-30T16:38:58.272Z,100383.72
2022-08-30T16:42:03.346Z,100389.87
2022-08-30T16:45:10.458Z,100387.78
2022-08-30T16:48:15.518Z,100396.66
2022-08-30T16:51:24.530Z,100401.16
2022-08-30T16:54:28.871Z,100398.25
2022-08-30T16:57:31.460Z,100396.56
2022-08-30T17:00:36.675Z,100407.69
2022-08-30T17:03:40.311Z,100398.56
2022-08-30T17:06:43.256Z,100402.41
2022-08-30T17:09:45.952Z,100405.16
2022-08-30T17:12:49.980Z,100407.09
2022-08-30T17:15:52.771Z,100408.84
2022-08-30T17:19:00.582Z,100417.38
2022-08-30T17:22:04.005Z,100416.72
2022-08-30T17:25:07.815Z,100426.41
2022-08-30T17:28:11.108Z,100424.34
2022-08-30T17:31:14.893Z,100419.84
2022-08-30T17:34:17.745Z,100428.13
2022-08-30T17:37:20.857Z,100422.97
2022-08-30T17:40:23.994Z,100425.88
2022-08-30T17:43:27.432Z,100424.81
2022-08-30T17:46:32.760Z,100438.19
2022-08-30T17:49:35.783Z,100439.16
2022-08-30T17:52:38.716Z,100445.41
2022-08-30T17:55:48.426Z,100453.09
2022-08-30T17:58:51.047Z,100457.16
2022-08-30T18:01:56.105Z,100460.28
2022-08-30T18:05:00.532Z,100466.34
2022-08-30T18:08:03.760Z,100461.16
2022-08-30T18:11:07.879Z,100470.56
2022-08-30T18:14:12.708Z,100468.97
2022-08-30T18:17:16.324Z,100476.03
2022-08-30T18:20:19.078Z,100476.06
2022-08-30T18:23:25.232Z,100477.44
2022-08-30T18:26:27.953Z,100484.47
2022-08-30T18:29:31.605Z,100485.38
2022-08-30T18:32:36.246Z,100486.81
2022-08-30T18:35:47.570Z,100491.06
2022-08-30T18:38:51.146Z,100482.34
2022-08-30T18:41:57.002Z,100491.84
2022-08-30T18:44:59.704Z,100498.28
2022-08-30T18:48:15.386Z,100502.34
2022-08-30T18:51:20.453Z,100492.88
2022-08-30T18:54:24.728Z,100492.44
2022-08-30T18:57:27.422Z,100502.59
2022-08-30T19:00:32.027Z,100503.31
2022-08-30T19:03:35.657Z,100503.28
2022-08-30T19:06:43.055Z,100502.59
2022-08-30T19:09:46.777Z,100497.94
2022-08-30T19:12:50.516Z,100496.41
2022-08-30T19:15:54.869Z,100502.41
2022-08-30T19:18:59.361Z,100499.75
2022-08-30T19:22:01.936Z,100503.56
2022-08-30T19:25:08.415Z,100495.53
2022-08-30T19:28:11.343Z,100500.00
2022-08-30T19:31:14.222Z,100500.88
2022-08-30T19:34:17.538Z,100501.47
2022-08-30T19:37:20.726Z,100506.78
2022-08-30T19:40:23.323Z,100507.19
2022-08-30T19:43:27.783Z,100502.06
2022-08-30T19:46:33.491Z,100507.34
2022-08-30T19:49:36.820Z,100503.16
2022-08-30T19:52:40.208Z,100502.19
2022-08-30T19:55:43.139Z,100498.31
2022-08-30T19:58:46.448Z,100500.50
2022-08-30T20:01:49.336Z,100495.94
2022-08-30T20:04:53.195Z,100504.28
2022-08-30T20:07:58.215Z,100507.87
2022-08-30T20:11:01.291Z,100515.97
2022-08-30T20:14:04.210Z,100520.84
2022-08-30T20:17:07.289Z,100515.69
2022-08-30T20:20:18.129Z,100517.06
2022-08-30T20:23:25.349Z,100512.88
2022-08-30T20:26:33.512Z,100513.16
2022-08-30T20:29:37.980Z,100499.78
2022-08-30T20:32:44.834Z,100497.56
2022-08-30T20:35:49.489Z,100494.34
2022-08-30T20:38:52.529Z,100491.53
2022-08-30T20:41:55.440Z,100482.06
2022-08-30T20:44:58.853Z,100486.09
2022-08-30T20:48:03.189Z,100485.66
2022-08-30T20:51:10.855Z,100474.41
2022-08-30T20:54:13.716Z,100481.50
2022-08-30T20:57:19.319Z,100482.19
2022-08-30T21:00:25.413Z,100482.19
2022-08-30T21:03:29.160Z,100478.97
2022-08-30T21:06:37.593Z,100493.16
2022-08-30T21:09:40.179Z,100490.81
2022-08-30T21:12:43.407Z,100492.44
2022-08-30T21:15:52.292Z,100502.25
2022-08-30T21:18:55.789Z,100503.50
2022-08-30T21:21:58.387Z,100507.34
2022-08-30T21:25:02.306Z,100509.03
2022-08-30T21:28:04.844Z,100503.31
2022-08-30T21:31:11.681Z,100496.75
2022-08-30T21:34:17.584Z,100497.59
2022-08-30T21:37:21.352Z,100509.25
2022-08-30T21:40:23.909Z,100507.72
2022-08-30T21:43:26.776Z,100508.34
2022-08-30T21:46:32.209Z,100511.75
2022-08-30T21:49:36.075Z,100510.34
2022-08-30T21:52:38.682Z,100518.25
2022-08-30T21:55:41.424Z,100518.56
2022-08-30T21:58:46.546Z,100526.28
2022-08-30T22:01:50.038Z,100527.09
2022-08-30T22:04:52.880Z,100525.09
2022-08-30T22:07:55.462Z,100518.63
2022-08-30T22:10:58.486Z,100510.03
2022-08-30T22:14:01.698Z,100507.78
2022-08-30T22:17:04.612Z,100510.94
2022-08-30T22:20:07.888Z,100506.03
2022-08-30T22:23:10.673Z,100509.00
2022-08-30T22:26:22.671Z,100509.38
2022-08-30T22:29:25.509Z,100511.44
2022-08-30T22:32:28.610Z,100505.56
2022-08-30T22:35:31.390Z,100502.50
2022-08-30T22:38:34.077Z,100506.47
2022-08-30T22:41:38.060Z,100502.66
2022-08-30T22:44:40.585Z,100504.94
2022-08-30T22:47:43.400Z,100507.69
2022-08-30T22:50:46.739Z,100512.81
2022-08-30T22:53:50.263Z,100528.28
2022-08-30T22:56:52.689Z,100517.41
2022-08-30T22:59:55.628Z,100507.87
2022-08-30T23:02:58.087Z,100521.22
2022-08-30T23:06:01.222Z,100505.28
2022-08-30T23:09:05.711Z,100519.31
2022-08-30T23:12:08.475Z,100505.41
2022-08-30T23:15:14.425Z,100503.59
2022-08-30T23:18:17.198Z,100494.41
2022-08-30T23:21:25.435Z,100491.56
2022-08-30T23:24:49.099Z,100487.19
2022-08-30T23:28:10.147Z,100484.69
2022-08-30T23:31:34.580Z,100487.81
2022-08-30T23:34:55.641Z,100490.38
2022-08-30T23:38:20.632Z,100493.06
2022-08-30T23:41:41.557Z,100488.41
2022-08-30T23:45:03.020Z,100493.19
2022-08-30T23:48:24.403Z,100496.06
2022-08-30T23:51:45.925Z,100487.22
2022-08-30T23:55:07.261Z,100485.34
2022-08-30T23:58:28.691Z,100492.16
